Northwood, IA

8:19 AM CDT on April 25, 2015 (GMT -0500)
KMNGLENV5 | | Change Station
CLOSE
Current Station
Personal Weather Station
Location: Glenville, MN
Elevation: 1320 ft
Nearby Weather Stations

Elev 1320 ft 43.54 °N, 93.24 °W | Updated 4 minutes ago

Overcast
Overcast
40.3 °F
Feels Like 30 °F
N
24.4
Wind Variable Wind from South
Gusts 27.3 mph

Today
High -- | Low -- °F
--% Chance of Precip.
Yesterday
High -- | Low -- °F
Precip. -- in
6:14 AM 8:07 PM
Waxing Crescent, 46% visible
Pressure 29.75 in
Visibility 10.0 miles
Clouds Overcast 4300 ft
Windchill 30 °F
Dew Point 34 °F
Humidity 78%
Rainfall 0.11 in
Snow Depth Not available.
UV 0 out of 12
Pollen 9.40 out of 12
Air Quality Not available.
Flu Activity Local Activity
METAR KAEL 251314Z AUTO 09013G17KT 10SM OVC043 06/03 A2975 RMK AO2

More Conditions Fewer Conditions

Pressure 29.75 in
Visibility 10.0 miles
Clouds Overcast 4300 ft
Windchill 30 °F
Dew Point 34 °F
Humidity 78%
Rainfall 0.11 in
Snow Depth Not available.
UV 0 out of 12
Pollen 9.40 out of 12
Air Quality Not available.
Flu Activity Local Activity
METAR KAEL 251314Z AUTO 09013G17KT 10SM OVC043 06/03 A2975 RMK AO2

More Conditions Fewer Conditions

10-Day Weather Forecast

Almanac

Astronomy

Apr. 25, 2015 Rise Set
Actual Time
Civil Twilight
Nautical Twilight
Astronomical Twilight
Moon
Length of Visible Light
Length of Day
Tomorrow will be .
, % of the Moon is Illuminated

Today's Extremes

State Highs State Lows

Community

WunderPhotos

Upload Photos

1,816,662 photos uploaded!

WunderBlogs® & News

Nearby

Air Quality

  Air Quality AQ Index Pollutant
Not available.

Snow Depth

Station Depth Elevation

Earthquake Activity

City Distance Mag. Time & Date
Minimum magnitude displayed is 2.5.

Coastal Water Temperatures

Place Temperature

Stations

Nearby Weather Stations

Station Location Temp. Windchill Dew Point Humidity Wind Precip. Elev Updated Type